METAR Data
IDs: Format: Raw Decoded Include TAF

Data at: 2151 UTC 24 Mar 2019

KGLE 242135Z AUTO 25005KT 10SM BKN060 27/13 A2996 RMK AO2 T02660134
KGLE 242115Z AUTO 23005KT 10SM CLR 27/14 A2996 RMK AO2 T02710135
KGLE 242055Z AUTO 23008KT 10SM CLR 27/14 A2997 RMK AO2 T02700135
KGLE 242035Z AUTO 24008KT 10SM CLR 27/14 A2997 RMK AO2 T02660140
KGLE 242015Z AUTO 23009KT 10SM SCT048 SCT060 26/14 A2998 RMK AO2 T02630140
KGLE 241955Z AUTO 26008KT 10SM BKN046 BKN055 BKN070 26/15 A2999 RMK AO2 T02550145
KGLE 241935Z AUTO 25010KT 10SM BKN046 BKN055 25/14 A2999 RMK AO2 T02530142
KGLE 241915Z AUTO 23010G16KT 10SM BKN044 BKN049 25/14 A3000 RMK AO2 T02490143
KGLE 241855Z AUTO 25011G15KT 10SM SCT042 26/15 A3000 RMK AO2 T02560151
KGLE 241835Z AUTO 22012KT 10SM SCT036 25/15 A3001 RMK AO2 T02470149
KGLE 241815Z AUTO 23008G15KT 10SM SCT036 25/15 A3002 RMK AO2 T02450150
KGLE 241755Z AUTO 23012G17KT 10SM SCT036 25/15 A3002 RMK AO2 T02450151 10246 20128
KGLE 241735Z AUTO 23013KT 10SM SCT030 SCT036 24/15 A3003 RMK AO2 T02390152
KGLE 241715Z AUTO 23011KT 10SM SCT030 BKN035 23/16 A3004 RMK AO2 T02300158
KGLE 241655Z AUTO 22011G15KT 10SM BKN029 OVC034 23/16 A3004 RMK AO2 T02250159
KGLE 241635Z AUTO 21011KT 10SM BKN026 OVC031 22/16 A3004 RMK AO2 T02220162
KGLE 241615Z AUTO 21012KT 10SM BKN022 22/16 A3005 RMK AO2 T02150161
KGLE 241555Z AUTO 22012G17KT 10SM BKN018 BKN025 21/16 A3005 RMK AO2 T02090160
KGLE 241535Z AUTO 22013KT 10SM BKN016 20/16 A3005 RMK AO2 T02040159
KGLE 241515Z AUTO 20014KT 10SM BKN012 20/16 A3005 RMK AO2 T01990162
KGLE 241455Z AUTO 19013KT 10SM BKN007 OVC012 19/16 A3005 RMK AO2 T01860160
KGLE 241435Z AUTO 19009KT 10SM OVC007 17/16 A3005 RMK AO2 T01710159
KGLE 241415Z AUTO 19010KT 10SM OVC005 16/15 A3005 RMK AO2 T01590154
KGLE 241355Z AUTO 19008KT 7SM OVC003 15/15 A3004 RMK AO2 T01520147
KGLE 241335Z AUTO 18007KT 5SM BR OVC003 15/14 A3004 RMK AO2 T01460142
KGLE 241315Z AUTO 17006KT 4SM BR SCT003 14/14 A3003 RMK AO2 T01390135
KGLE 241255Z AUTO 18005KT 2 1/2SM BR CLR 13/13 A3002 RMK AO2 T01300125
KGLE 241235Z AUTO 17006KT 2 1/2SM BR CLR 13/13 A3001 RMK AO2 T01300125
KGLE 241215Z AUTO 17005KT 4SM BR CLR 13/13 A3002 RMK AO2 T01300125
KGLE 241155Z AUTO 15004KT 5SM BR CLR 13/12 A3002 RMK AO2 70010 T01300124 10176 20130
KGLE 241135Z AUTO 16004KT 7SM CLR 13/13 A3001 RMK AO2 T01330127
KGLE 241115Z AUTO 16005KT 7SM CLR 14/13 A3001 RMK AO2 T01360129
KGLE 241055Z AUTO 16005KT 10SM CLR 14/13 A3001 RMK AO2 T01430134
KGLE 241035Z AUTO 17006KT 10SM CLR 15/14 A3000 RMK AO2 T01470137
KGLE 241015Z AUTO 17006KT 10SM CLR 15/14 A3000 RMK AO2 T01470137
KGLE 240955Z AUTO 17007KT 10SM SCT021 SCT026 15/14 A3000 RMK AO2 T01490136
KGLE 240935Z AUTO 17006KT 10SM BKN023 16/14 A3000 RMK AO2 T01550140
KGLE 240915Z AUTO 17007KT 10SM BKN025 16/14 A3000 RMK AO2 T01620142
KGLE 240855Z AUTO 17009KT 10SM SCT019 OVC025 17/15 A3000 RMK AO2 T01680145
KGLE 240835Z AUTO 17009KT 10SM OVC023 17/15 A3000 RMK AO2 T01720146
KGLE 240815Z AUTO 17009KT 10SM OVC023 17/15 A3001 RMK AO2 T01730146
KGLE 240755Z AUTO 17009KT 10SM BKN022 OVC026 18/15 A3001 RMK AO2 T01750147
KGLE 240735Z AUTO 18010KT 10SM OVC022 18/15 A3001 RMK AO2 T01760147
KGLE 240715Z AUTO 18010KT 10SM OVC022 18/15 A3001 RMK AO2 T01750147
KGLE 240655Z AUTO 18009KT 10SM OVC022 17/15 A3001 RMK AO2 T01720146
KGLE 240635Z AUTO 17009KT 10SM OVC024 17/15 A3001 RMK AO2 T01720146
KGLE 240615Z AUTO 17008KT 10SM BKN026 OVC031 17/15 A3002 RMK AO2 T01670145
KGLE 240555Z AUTO 18006KT 10SM BKN027 OVC034 17/15 A3003 RMK AO2 T01670145 10195 20165 402200130
KGLE 240535Z AUTO 18004KT 10SM OVC029 17/15 A3003 RMK AO2 T01670145
KGLE 240515Z AUTO 17005KT 10SM OVC031 17/15 A3003 RMK AO2 T01670146
KGLE 240455Z AUTO 17006KT 10SM OVC031 17/15 A3003 RMK AO2 T01700145
KGLE 240435Z AUTO 17006KT 10SM OVC031 17/15 A3003 RMK AO2 T01730147
KGLE 240415Z AUTO 17005KT 10SM OVC031 18/15 A3003 RMK AO2 T01750147
KGLE 240355Z AUTO 18007KT 10SM OVC031 18/15 A3002 RMK AO2 T01760150
KGLE 240335Z AUTO 17007KT 10SM BKN031 BKN055 17/15 A3002 RMK AO2 T01730148
KGLE 240315Z AUTO 17007KT 10SM SCT031 SCT055 BKN065 18/15 A3001 RMK AO2 T01750147
KGLE 240255Z AUTO 17009KT 10SM SCT031 BKN075 18/15 A3000 RMK AO2 T01760147
KGLE 240235Z AUTO 17009KT 10SM SCT029 SCT075 18/15 A3000 RMK AO2 T01750148
KGLE 240215Z AUTO 15005KT 10SM SCT030 17/15 A2999 RMK AO2 T01670146
KGLE 240155Z AUTO 17007KT 10SM CLR 17/15 A2999 RMK AO2 T01710148
KGLE 240135Z AUTO 16007KT 10SM CLR 17/15 A2998 RMK AO2 T01710150
KGLE 240115Z AUTO 17009KT 10SM SCT026 18/15 A2998 RMK AO2 T01760151
KGLE 240055Z AUTO 17011KT 10SM SCT025 18/15 A2997 RMK AO2 T01800151
KGLE 240035Z AUTO 16012G17KT 10SM SCT025 18/15 A2997 RMK AO2 T01840151
KGLE 240015Z AUTO 17011KT 10SM SCT023 19/15 A2997 RMK AO2 T01900151
KGLE 232355Z AUTO 17015G19KT 10SM SCT026 20/15 A2996 RMK AO2 T01950150 10220 20166
KGLE 232335Z AUTO 17014G24KT 10SM BKN026 20/15 A2997 RMK AO2 T02020150
KGLE 232315Z AUTO 17015G26KT 10SM SCT026 21/15 A2997 RMK AO2 T02100151
KGLE 232255Z AUTO 17016G21KT 10SM SCT027 SCT075 21/15 A2997 RMK AO2 T02090150
KGLE 232235Z AUTO 17012G21KT 10SM SCT027 OVC075 20/15 A2997 RMK AO2 T02040150
KGLE 232215Z AUTO 18012KT 10SM SCT024 OVC060 20/15 A2998 RMK AO2 T02010150
KGLE 232155Z AUTO 19014G19KT 10SM BKN024 OVC060 20/15 A2998 RMK AO2 T02010148
KGLE 232135Z AUTO 18017G23KT 10SM BKN024 OVC060 21/15 A2998 RMK AO2 T02050148
KGLE 232115Z AUTO 19021G26KT 10SM SCT024 OVC060 22/15 A2997 RMK AO2 T02160148
KGLE 232055Z AUTO 18020G24KT 10SM SCT022 OVC060 21/15 A2997 RMK AO2 T02140151
KGLE 232035Z AUTO 18019G24KT 10SM BKN020 BKN026 OVC060 20/15 A2998 RMK AO2 T02040148
KGLE 232015Z AUTO 18017G23KT 10SM SCT020 OVC060 20/15 A2998 RMK AO2 T01980149
KGLE 231955Z AUTO 18015G21KT 10SM SCT018 OVC050 20/15 A2999 RMK AO2 T01950149
KGLE 231935Z AUTO 18018G22KT 10SM OVC050 19/15 A3000 RMK AO2 T01860145
KGLE 231915Z AUTO 19016G20KT 10SM OVC050 18/14 A3001 RMK AO2 T01820143
KGLE 231855Z AUTO 18014G19KT 10SM SCT015 OVC048 18/14 A3002 RMK AO2 T01760143
KGLE 231835Z AUTO 19014KT 10SM SCT015 BKN036 OVC046 17/14 A3003 RMK AO2 T01720141
KGLE 231815Z AUTO 19013KT 10SM SCT015 OVC036 17/14 A3004 RMK AO2 T01670139
KGLE 231755Z AUTO 18012G19KT 10SM BKN037 OVC043 17/14 A3005 RMK AO2 60010 T01670136 10167 20130
KGLE 231735Z AUTO 17012G17KT 10SM BKN039 OVC046 17/13 A3005 RMK AO2 T01650131
KGLE 231715Z AUTO 17010KT 10SM OVC039 16/13 A3005 RMK AO2 T01580132
KGLE 231655Z AUTO 18010G14KT 10SM -RA OVC037 16/13 A3006 RMK AO2 T01560130
KGLE 231635Z AUTO 19012KT 10SM -RA OVC037 16/12 A3006 RMK AO2 T01610124
KGLE 231615Z AUTO 18013G18KT 10SM BKN037 OVC044 16/12 A3007 RMK AO2 T01630123
KGLE 231555Z AUTO 17008KT 10SM SCT039 BKN046 OVC090 16/12 A3006 RMK AO2 T01600124
KGLE 231535Z AUTO 16008KT 10SM BKN049 BKN070 OVC080 16/13 A3006 RMK AO2 T01610125
KGLE 231515Z AUTO 16009KT 10SM BKN047 OVC070 15/12 A3006 RMK AO2 T01500120
KGLE 231455Z AUTO 14007KT 10SM BKN045 OVC070 14/12 A3006 RMK AO2 60010 T01390119
KGLE 231435Z AUTO 11004KT 10SM BKN040 OVC048 13/11 A3006 RMK AO2 T01300113
KGLE 231415Z AUTO 15005KT 10SM SCT041 BKN048 OVC070 13/11 A3007 RMK AO2 T01320114
KGLE 231355Z AUTO 16006KT 10SM -RA BKN035 BKN050 OVC075 13/10 A3006 RMK AO2 P0009 T01330103
KGLE 231335Z AUTO 21004KT 5SM -RA SCT023 SCT028 OVC035 13/10 A3006 RMK AO2 P0009 T01300102
KGLE 231315Z AUTO 22003KT 10SM -RA BKN035 OVC041 14/09 A3006 RMK AO2 T01410092
KGLE 231255Z AUTO 00000KT 7SM RA SCT033 OVC039 15/09 A3005 RMK AO2 T01460085
KGLE 231235Z AUTO 15006KT 10SM BKN037 BKN049 OVC055 15/08 A3005 RMK AO2 T01480080
KGLE 231215Z AUTO 14005KT 10SM BKN039 OVC045 15/08 A3004 RMK AO2 T01460080
KGLE 231155Z AUTO 14003KT 10SM SCT039 OVC046 15/08 A3005 RMK AO2 T01500075 10157 20145
KGLE 231135Z AUTO 00000KT 10SM OVC050 15/07 A3004 RMK AO2 T01480073
KGLE 231115Z AUTO 00000KT 10SM OVC060 15/07 A3004 RMK AO2 T01470072
KGLE 231055Z AUTO 13004KT 10SM OVC060 15/07 A3003 RMK AO2 T01450072
KGLE 231035Z AUTO 14003KT 10SM OVC060 15/07 A3003 RMK AO2 T01450070
KGLE 231015Z AUTO 00000KT 10SM OVC060 15/07 A3003 RMK AO2 T01450067
KGLE 230955Z AUTO 15004KT 10SM BKN070 15/06 A3002 RMK AO2 T01460064